Colorado Star — 9HA2189 — position and weather

sailwx.info

Track history (hours):
 
Tides and Currents Weather Stations Pressure Air Temp Water Temp Dewpoint Dewpoint Depression Visibility Wind Speed Wind Dir Waves Ship Positions

Colorado Star

Last reported at 2015-Jan-31 03:03 UTC. Time now 2015-Jan-31 05:34 UTC.
Position N 54°37' W 001°09'.

Length 128 m; draft 8.5 m.

Type: Ship. MMSI: 248127000.

Date/timePositionNaut miles runAvg speedWind from/ knotsBaromVisibWave heightAir tempDewpointWater temp
2015-Jan-31 03:03N 54°37' W 001°09'2 3.7
2015-Jan-31 02:31N 54°39' W 001°08'5 5.6
2015-Jan-31 01:33N 54°42' W 001°01'4 4.4
2015-Jan-31 00:33N 54°43' W 000°53'2 1.5
2015-Jan-30 23:32N 54°44' W 000°55'1 1.4
2015-Jan-30 22:32N 54°45' W 000°56'3 2.7
2015-Jan-30 21:33N 54°45' W 000°51'1310.1
2015-Jan-30 20:17N 54°48' W 000°30'710.0
2015-Jan-30 19:33N 54°50' W 000°18'1010.1
2015-Jan-30 18:33N 54°52' W 000°01'383 9.1
2015-Jan-29 00:25N 57°60' E 010°04'8 9.0
2015-Jan-28 23:33N 58°02' E 010°17'9 8.9
2015-Jan-28 22:33N 58°06' E 010°33'9 8.7
2015-Jan-28 21:33N 58°09' E 010°48'7 7.4
2015-Jan-28 20:33N 58°12' E 011°01'6 6.4
2015-Jan-28 19:33N 58°15' E 011°12'8 8.0
2015-Jan-28 18:33N 58°20' E 011°23'2 1.8
2015-Jan-28 17:31N 58°21' E 011°26'0 0.0
2015-Jan-28 16:31N 58°21' E 011°26'0 0.0
2015-Jan-28 15:31N 58°21' E 011°26'0 0.0
2015-Jan-28 14:28N 58°21' E 011°26'0 0.0
2015-Jan-28 13:16N 58°21' E 011°26'0 0.0
2015-Jan-28 12:31N 58°21' E 011°26'0 0.0
2015-Jan-28 11:31N 58°21' E 011°26'0 0.0
2015-Jan-28 10:31N 58°21' E 011°26'0 0.0
2015-Jan-28 09:13N 58°21' E 011°26'0 0.0
2015-Jan-28 08:31N 58°21' E 011°26'0 0.0
2015-Jan-28 07:31N 58°21' E 011°26'0 0.0
2015-Jan-28 06:31N 58°21' E 011°26'0 0.0
2015-Jan-28 05:32N 58°21' E 011°26'0 0.0
2015-Jan-28 04:25N 58°21' E 011°26'0 0.0
2015-Jan-28 03:31N 58°21' E 011°26'0 0.0
2015-Jan-28 02:28N 58°21' E 011°26'0 0.0
2015-Jan-27 19:08N 58°21' E 011°26'1 1.6
2015-Jan-27 18:33N 58°21' E 011°24'1111.0
2015-Jan-27 17:33N 58°13' E 011°10'1312.8
2015-Jan-27 16:33N 58°07' E 010°49'1312.8
2015-Jan-27 15:31N 57°59' E 010°28'8912.8
2015-Jan-27 08:33N 57°10' E 008°10'1211.5
2015-Jan-27 07:32N 56°60' E 007°58'1110.8
2015-Jan-27 06:33N 56°50' E 007°52'7110.2
2015-Jan-26 23:33N 55°42' E 007°12'1010.5
2015-Jan-26 22:33N 55°32' E 007°06'1110.8
2015-Jan-26 21:33N 55°22' E 007°00'1111.0
2015-Jan-26 20:33N 55°11' E 006°55'1111.1
2015-Jan-26 19:33N 55°00' E 007°00'1111.5
2015-Jan-26 18:33N 54°49' E 007°06'1111.3
2015-Jan-26 17:33N 54°38' E 007°10'1211.9
2015-Jan-26 16:33N 54°28' E 007°20'1111.2
2015-Jan-26 15:33N 54°18' E 007°30'1111.0
2015-Jan-26 14:33N 54°10' E 007°42'1111.0
2015-Jan-26 13:33N 54°04' E 007°58'1010.0
2015-Jan-26 12:33N 54°00' E 008°14'1010.4
2015-Jan-26 11:33N 53°58' E 008°31'1413.8
2015-Jan-26 10:34N 53°50' E 008°50'1514.7
2015-Jan-26 09:33N 53°53' E 009°15'1514.6
2015-Jan-26 08:33N 53°41' E 009°30'1212.1
2015-Jan-26 07:33N 53°34' E 009°46'7 6.9
2015-Jan-26 06:33N 53°31' E 009°57'1 0.6
2015-Jan-26 05:29N 53°30' E 009°57'0 0.0
2015-Jan-26 04:29N 53°30' E 009°57'0 0.0
2015-Jan-26 03:32N 53°30' E 009°58'0 0.0
2015-Jan-26 02:32N 53°30' E 009°57'0 0.0
2015-Jan-26 01:32N 53°30' E 009°57'0 0.0
2015-Jan-26 00:29N 53°30' E 009°57'0 0.0
2015-Jan-25 23:32N 53°30' E 009°57'0 0.0
2015-Jan-25 22:32N 53°30' E 009°58'0 0.0
2015-Jan-25 21:29N 53°30' E 009°57'0 0.0
2015-Jan-25 20:32N 53°30' E 009°58'0 0.0
2015-Jan-25 19:32N 53°30' E 009°57'0 0.0
2015-Jan-25 18:32N 53°30' E 009°57'0 0.0
2015-Jan-25 17:29N 53°30' E 009°57'0 0.0
2015-Jan-25 16:32N 53°30' E 009°57'0 0.0
2015-Jan-25 15:32N 53°30' E 009°57'0 0.0
2015-Jan-25 14:29N 53°30' E 009°57'0 0.0
2015-Jan-25 13:32N 53°30' E 009°57'0 0.0
2015-Jan-25 12:32N 53°30' E 009°57'0 0.0
2015-Jan-25 11:32N 53°30' E 009°57'0 0.0
2015-Jan-25 10:32N 53°30' E 009°57'0 0.0
2015-Jan-25 09:32N 53°30' E 009°57'0 0.0
2015-Jan-25 08:32N 53°30' E 009°58'0 0.0
2015-Jan-25 07:26N 53°30' E 009°57'0 0.0
2015-Jan-25 06:32N 53°30' E 009°58'0 0.0
2015-Jan-25 05:29N 53°30' E 009°57'0 0.0
2015-Jan-25 04:33N 53°30' E 009°57'2 2.5
2015-Jan-25 03:33N 53°32' E 009°55'1312.9
2015-Jan-25 02:34N 53°36' E 009°35'1413.5
2015-Jan-25 01:33N 53°48' E 009°23'1212.4
2015-Jan-25 00:33N 53°52' E 009°03'1212.5
2015-Jan-24 23:33N 53°54' E 008°42'1313.4
2015-Jan-24 22:33N 53°59' E 008°21'9 9.5
2015-Jan-24 21:34N 54°02' E 008°06'2 1.6
2015-Jan-24 20:32N 54°02' E 008°08'0 0.1
2015-Jan-24 19:23N 54°02' E 008°08'0 0.0
2015-Jan-24 18:32N 54°02' E 008°08'0 0.1
2015-Jan-24 17:32N 54°02' E 008°08'0 0.1
2015-Jan-24 16:32N 54°02' E 008°09'0 0.0
2015-Jan-24 15:26N 54°02' E 008°09'0 0.0
2015-Jan-24 14:26N 54°02' E 008°09'0 0.0
2015-Jan-24 13:32N 54°02' E 008°09'0 0.0
2015-Jan-24 12:26N 54°02' E 008°09'0 0.0
2015-Jan-24 11:26N 54°02' E 008°09'0 0.0
2015-Jan-24 10:32N 54°02' E 008°09'1 1.0
2015-Jan-24 09:33N 54°02' E 008°10'1010.5
2015-Jan-24 08:33N 53°59' E 008°27'6 6.0
2015-Jan-24 07:33N 53°60' E 008°17'8 7.7
2015-Jan-24 06:33N 54°02' E 008°05'3 3.4
2015-Jan-24 05:33N 54°03' E 008°10'0 0.1
2015-Jan-24 04:33N 54°03' E 008°10'0 0.1
2015-Jan-24 03:33N 54°03' E 008°10'0 0.1
2015-Jan-24 02:33N 54°03' E 008°11'0 0.0
2015-Jan-24 01:33N 54°03' E 008°11'0 0.1
2015-Jan-24 00:30N 54°03' E 008°11'0 0.0
2015-Jan-23 23:33N 54°03' E 008°11'0 0.0
2015-Jan-23 22:33N 54°03' E 008°11'0 0.1
2015-Jan-23 21:33N 54°03' E 008°10'0 0.1
2015-Jan-23 20:33N 54°03' E 008°10'0 0.1
2015-Jan-23 19:30N 54°03' E 008°10'0 0.0
2015-Jan-23 18:33N 54°03' E 008°10'0 0.0
2015-Jan-23 17:33N 54°03' E 008°10'0 0.0
2015-Jan-23 16:33N 54°03' E 008°10'4 3.9
2015-Jan-23 15:33N 54°02' E 008°04'1211.2
2015-Jan-23 14:27N 53°57' E 007°44'1212.0
2015-Jan-23 13:25N 53°54' E 007°24'1112.0
2015-Jan-23 12:28N 53°51' E 007°05'1512.5
2015-Jan-23 11:14N 53°47' E 006°40'1413.0
2015-Jan-23 10:11N 53°44' E 006°17'813.1
2015-Jan-23 09:33N 53°42' E 006°04'1313.2
2015-Jan-23 08:33N 53°38' E 005°43'1413.7
2015-Jan-23 07:33N 53°34' E 005°21'1413.7
2015-Jan-23 06:33N 53°29' E 004°59'1312.6
2015-Jan-23 05:33N 53°23' E 004°41'1412.9
2015-Jan-23 04:29N 53°10' E 004°31'1112.1
2015-Jan-23 03:33N 53°00' E 004°22'1111.2
2015-Jan-23 02:33N 52°50' E 004°14'1110.8
2015-Jan-23 01:33N 52°40' E 004°07'10 9.9
2015-Jan-23 00:33N 52°31' E 004°13'1211.7
2015-Jan-22 23:34N 52°28' E 004°31'4 4.0
2015-Jan-22 22:33N 52°28' E 004°38'6 5.8
2015-Jan-22 21:28N 52°25' E 004°47'0 0.0
2015-Jan-22 20:31N 52°25' E 004°47'0 0.0
2015-Jan-22 19:31N 52°25' E 004°47'0 0.0
2015-Jan-22 18:28N 52°25' E 004°47'0 0.0
2015-Jan-22 17:28N 52°25' E 004°47'0 0.0
2015-Jan-22 16:31N 52°25' E 004°47'0 0.0
2015-Jan-22 15:31N 52°25' E 004°47'0 0.0
2015-Jan-22 14:31N 52°25' E 004°47'0 0.0
2015-Jan-22 13:31N 52°25' E 004°47'0 0.0
2015-Jan-22 12:31N 52°25' E 004°47'0 0.0
2015-Jan-22 11:31N 52°25' E 004°47'0 0.0
2015-Jan-22 10:31N 52°25' E 004°47'0 0.0
2015-Jan-22 09:31N 52°25' E 004°47'0 0.0
2015-Jan-22 08:31N 52°25' E 004°47'0 0.0
2015-Jan-22 07:31N 52°25' E 004°47'0 0.0
2015-Jan-22 06:31N 52°25' E 004°47'0 0.0
2015-Jan-22 05:31N 52°25' E 004°47'0 0.0
2015-Jan-22 04:31N 52°25' E 004°47'0 0.0
2015-Jan-22 03:31N 52°25' E 004°47'0 0.0
2015-Jan-22 02:31N 52°25' E 004°47'0 0.0
2015-Jan-22 01:31N 52°25' E 004°47'0 0.0
2015-Jan-22 00:31N 52°25' E 004°47'0 0.0
2015-Jan-21 23:31N 52°25' E 004°47'0 0.0
2015-Jan-21 22:49N 52°25' E 004°47'0 0.0
2015-Jan-21 22:46N 52°25' E 004°47'0 0.0
2015-Jan-21 22:31N 52°25' E 004°47'0 0.0
2015-Jan-21 21:31N 52°25' E 004°47'0 0.0
2015-Jan-21 20:31N 52°25' E 004°47'0 0.0
2015-Jan-21 19:31N 52°25' E 004°47'0 0.0
2015-Jan-21 18:31N 52°25' E 004°47'0 0.0
2015-Jan-21 17:31N 52°25' E 004°47'0 0.0
2015-Jan-21 16:31N 52°25' E 004°47'1 1.2
2015-Jan-21 15:34N 52°26' E 004°45'6 6.0
2015-Jan-21 14:34N 52°28' E 004°36'2 2.0
2015-Jan-21 13:33N 52°28' E 004°33'9 9.4
2015-Jan-21 12:33N 52°31' E 004°19'0 0.3
2015-Jan-21 11:31N 52°31' E 004°18'0 0.0
2015-Jan-21 10:31N 52°31' E 004°18'0 0.0
2015-Jan-21 09:31N 52°31' E 004°18'0 0.0
2015-Jan-21 08:31N 52°31' E 004°18'0 0.1
2015-Jan-21 07:31N 52°31' E 004°18'0 0.0
2015-Jan-21 06:31N 52°31' E 004°19'0 0.0
2015-Jan-21 05:31N 52°31' E 004°19'0 0.0
2015-Jan-21 04:31N 52°31' E 004°19'0 0.0
2015-Jan-21 03:31N 52°31' E 004°19'  
Track history (hours):
 
Tides and Currents Weather Stations Pressure Air Temp Water Temp Dewpoint Dewpoint Depression Visibility Wind Speed Wind Dir Waves Ship Positions

Colorado Star

Last reported at 2015-Jan-31 03:03 UTC. Time now 2015-Jan-31 05:34 UTC.
Position N 54°37' W 001°09'.

Length 128 m; draft 8.5 m.

Type: Ship. MMSI: 248127000.

Date/timePositionNaut miles runAvg speedWind from/ knotsBaromVisibWave heightAir tempDewpointWater temp
2015-Jan-31 03:03N 54°37' W 001°09'2 3.7
2015-Jan-31 02:31N 54°39' W 001°08'5 5.6
2015-Jan-31 01:33N 54°42' W 001°01'4 4.4
2015-Jan-31 00:33N 54°43' W 000°53'2 1.5
2015-Jan-30 23:32N 54°44' W 000°55'1 1.4
2015-Jan-30 22:32N 54°45' W 000°56'3 2.7
2015-Jan-30 21:33N 54°45' W 000°51'1310.1
2015-Jan-30 20:17N 54°48' W 000°30'710.0
2015-Jan-30 19:33N 54°50' W 000°18'1010.1
2015-Jan-30 18:33N 54°52' W 000°01'383 9.1
2015-Jan-29 00:25N 57°60' E 010°04'8 9.0
2015-Jan-28 23:33N 58°02' E 010°17'9 8.9
2015-Jan-28 22:33N 58°06' E 010°33'9 8.7
2015-Jan-28 21:33N 58°09' E 010°48'7 7.4
2015-Jan-28 20:33N 58°12' E 011°01'6 6.4
2015-Jan-28 19:33N 58°15' E 011°12'8 8.0
2015-Jan-28 18:33N 58°20' E 011°23'2 1.8
2015-Jan-28 17:31N 58°21' E 011°26'0 0.0
2015-Jan-28 16:31N 58°21' E 011°26'0 0.0
2015-Jan-28 15:31N 58°21' E 011°26'0 0.0
2015-Jan-28 14:28N 58°21' E 011°26'0 0.0
2015-Jan-28 13:16N 58°21' E 011°26'0 0.0
2015-Jan-28 12:31N 58°21' E 011°26'0 0.0
2015-Jan-28 11:31N 58°21' E 011°26'0 0.0
2015-Jan-28 10:31N 58°21' E 011°26'0 0.0
2015-Jan-28 09:13N 58°21' E 011°26'0 0.0
2015-Jan-28 08:31N 58°21' E 011°26'0 0.0
2015-Jan-28 07:31N 58°21' E 011°26'0 0.0
2015-Jan-28 06:31N 58°21' E 011°26'0 0.0
2015-Jan-28 05:32N 58°21' E 011°26'0 0.0
2015-Jan-28 04:25N 58°21' E 011°26'0 0.0
2015-Jan-28 03:31N 58°21' E 011°26'0 0.0
2015-Jan-28 02:28N 58°21' E 011°26'0 0.0
2015-Jan-27 19:08N 58°21' E 011°26'1 1.6
2015-Jan-27 18:33N 58°21' E 011°24'1111.0
2015-Jan-27 17:33N 58°13' E 011°10'1312.8
2015-Jan-27 16:33N 58°07' E 010°49'1312.8
2015-Jan-27 15:31N 57°59' E 010°28'8912.8
2015-Jan-27 08:33N 57°10' E 008°10'1211.5
2015-Jan-27 07:32N 56°60' E 007°58'1110.8
2015-Jan-27 06:33N 56°50' E 007°52'7110.2
2015-Jan-26 23:33N 55°42' E 007°12'1010.5
2015-Jan-26 22:33N 55°32' E 007°06'1110.8
2015-Jan-26 21:33N 55°22' E 007°00'1111.0
2015-Jan-26 20:33N 55°11' E 006°55'1111.1
2015-Jan-26 19:33N 55°00' E 007°00'1111.5
2015-Jan-26 18:33N 54°49' E 007°06'1111.3
2015-Jan-26 17:33N 54°38' E 007°10'1211.9
2015-Jan-26 16:33N 54°28' E 007°20'1111.2
2015-Jan-26 15:33N 54°18' E 007°30'1111.0
2015-Jan-26 14:33N 54°10' E 007°42'1111.0
2015-Jan-26 13:33N 54°04' E 007°58'1010.0
2015-Jan-26 12:33N 54°00' E 008°14'1010.4
2015-Jan-26 11:33N 53°58' E 008°31'1413.8
2015-Jan-26 10:34N 53°50' E 008°50'1514.7
2015-Jan-26 09:33N 53°53' E 009°15'1514.6
2015-Jan-26 08:33N 53°41' E 009°30'1212.1
2015-Jan-26 07:33N 53°34' E 009°46'7 6.9
2015-Jan-26 06:33N 53°31' E 009°57'1 0.6
2015-Jan-26 05:29N 53°30' E 009°57'0 0.0
2015-Jan-26 04:29N 53°30' E 009°57'0 0.0
2015-Jan-26 03:32N 53°30' E 009°58'0 0.0
2015-Jan-26 02:32N 53°30' E 009°57'0 0.0
2015-Jan-26 01:32N 53°30' E 009°57'0 0.0
2015-Jan-26 00:29N 53°30' E 009°57'0 0.0
2015-Jan-25 23:32N 53°30' E 009°57'0 0.0
2015-Jan-25 22:32N 53°30' E 009°58'0 0.0
2015-Jan-25 21:29N 53°30' E 009°57'0 0.0
2015-Jan-25 20:32N 53°30' E 009°58'0 0.0
2015-Jan-25 19:32N 53°30' E 009°57'0 0.0
2015-Jan-25 18:32N 53°30' E 009°57'0 0.0
2015-Jan-25 17:29N 53°30' E 009°57'0 0.0
2015-Jan-25 16:32N 53°30' E 009°57'0 0.0
2015-Jan-25 15:32N 53°30' E 009°57'0 0.0
2015-Jan-25 14:29N 53°30' E 009°57'0 0.0
2015-Jan-25 13:32N 53°30' E 009°57'0 0.0
2015-Jan-25 12:32N 53°30' E 009°57'0 0.0
2015-Jan-25 11:32N 53°30' E 009°57'0 0.0
2015-Jan-25 10:32N 53°30' E 009°57'0 0.0
2015-Jan-25 09:32N 53°30' E 009°57'0 0.0
2015-Jan-25 08:32N 53°30' E 009°58'0 0.0
2015-Jan-25 07:26N 53°30' E 009°57'0 0.0
2015-Jan-25 06:32N 53°30' E 009°58'0 0.0
2015-Jan-25 05:29N 53°30' E 009°57'0 0.0
2015-Jan-25 04:33N 53°30' E 009°57'2 2.5
2015-Jan-25 03:33N 53°32' E 009°55'1312.9
2015-Jan-25 02:34N 53°36' E 009°35'1413.5
2015-Jan-25 01:33N 53°48' E 009°23'1212.4
2015-Jan-25 00:33N 53°52' E 009°03'1212.5
2015-Jan-24 23:33N 53°54' E 008°42'1313.4
2015-Jan-24 22:33N 53°59' E 008°21'9 9.5
2015-Jan-24 21:34N 54°02' E 008°06'2 1.6
2015-Jan-24 20:32N 54°02' E 008°08'0 0.1
2015-Jan-24 19:23N 54°02' E 008°08'0 0.0
2015-Jan-24 18:32N 54°02' E 008°08'0 0.1
2015-Jan-24 17:32N 54°02' E 008°08'0 0.1
2015-Jan-24 16:32N 54°02' E 008°09'0 0.0
2015-Jan-24 15:26N 54°02' E 008°09'0 0.0
2015-Jan-24 14:26N 54°02' E 008°09'0 0.0
2015-Jan-24 13:32N 54°02' E 008°09'0 0.0
2015-Jan-24 12:26N 54°02' E 008°09'0 0.0
2015-Jan-24 11:26N 54°02' E 008°09'0 0.0
2015-Jan-24 10:32N 54°02' E 008°09'1 1.0
2015-Jan-24 09:33N 54°02' E 008°10'1010.5
2015-Jan-24 08:33N 53°59' E 008°27'6 6.0
2015-Jan-24 07:33N 53°60' E 008°17'8 7.7
2015-Jan-24 06:33N 54°02' E 008°05'3 3.4
2015-Jan-24 05:33N 54°03' E 008°10'0 0.1
2015-Jan-24 04:33N 54°03' E 008°10'0 0.1
2015-Jan-24 03:33N 54°03' E 008°10'0 0.1
2015-Jan-24 02:33N 54°03' E 008°11'0 0.0
2015-Jan-24 01:33N 54°03' E 008°11'0 0.1
2015-Jan-24 00:30N 54°03' E 008°11'0 0.0
2015-Jan-23 23:33N 54°03' E 008°11'0 0.0
2015-Jan-23 22:33N 54°03' E 008°11'0 0.1
2015-Jan-23 21:33N 54°03' E 008°10'0 0.1
2015-Jan-23 20:33N 54°03' E 008°10'0 0.1
2015-Jan-23 19:30N 54°03' E 008°10'0 0.0
2015-Jan-23 18:33N 54°03' E 008°10'0 0.0
2015-Jan-23 17:33N 54°03' E 008°10'0 0.0
2015-Jan-23 16:33N 54°03' E 008°10'4 3.9
2015-Jan-23 15:33N 54°02' E 008°04'1211.2
2015-Jan-23 14:27N 53°57' E 007°44'1212.0
2015-Jan-23 13:25N 53°54' E 007°24'1112.0
2015-Jan-23 12:28N 53°51' E 007°05'1512.5
2015-Jan-23 11:14N 53°47' E 006°40'1413.0
2015-Jan-23 10:11N 53°44' E 006°17'813.1
2015-Jan-23 09:33N 53°42' E 006°04'1313.2
2015-Jan-23 08:33N 53°38' E 005°43'1413.7
2015-Jan-23 07:33N 53°34' E 005°21'1413.7
2015-Jan-23 06:33N 53°29' E 004°59'1312.6
2015-Jan-23 05:33N 53°23' E 004°41'1412.9
2015-Jan-23 04:29N 53°10' E 004°31'1112.1
2015-Jan-23 03:33N 53°00' E 004°22'1111.2
2015-Jan-23 02:33N 52°50' E 004°14'1110.8
2015-Jan-23 01:33N 52°40' E 004°07'10 9.9
2015-Jan-23 00:33N 52°31' E 004°13'1211.7
2015-Jan-22 23:34N 52°28' E 004°31'4 4.0
2015-Jan-22 22:33N 52°28' E 004°38'6 5.8
2015-Jan-22 21:28N 52°25' E 004°47'0 0.0
2015-Jan-22 20:31N 52°25' E 004°47'0 0.0
2015-Jan-22 19:31N 52°25' E 004°47'0 0.0
2015-Jan-22 18:28N 52°25' E 004°47'0 0.0
2015-Jan-22 17:28N 52°25' E 004°47'0 0.0
2015-Jan-22 16:31N 52°25' E 004°47'0 0.0
2015-Jan-22 15:31N 52°25' E 004°47'0 0.0
2015-Jan-22 14:31N 52°25' E 004°47'0 0.0
2015-Jan-22 13:31N 52°25' E 004°47'0 0.0
2015-Jan-22 12:31N 52°25' E 004°47'0 0.0
2015-Jan-22 11:31N 52°25' E 004°47'0 0.0
2015-Jan-22 10:31N 52°25' E 004°47'0 0.0
2015-Jan-22 09:31N 52°25' E 004°47'0 0.0
2015-Jan-22 08:31N 52°25' E 004°47'0 0.0
2015-Jan-22 07:31N 52°25' E 004°47'0 0.0
2015-Jan-22 06:31N 52°25' E 004°47'0 0.0
2015-Jan-22 05:31N 52°25' E 004°47'0 0.0
2015-Jan-22 04:31N 52°25' E 004°47'0 0.0
2015-Jan-22 03:31N 52°25' E 004°47'0 0.0
2015-Jan-22 02:31N 52°25' E 004°47'0 0.0
2015-Jan-22 01:31N 52°25' E 004°47'0 0.0
2015-Jan-22 00:31N 52°25' E 004°47'0 0.0
2015-Jan-21 23:31N 52°25' E 004°47'0 0.0
2015-Jan-21 22:49N 52°25' E 004°47'0 0.0
2015-Jan-21 22:46N 52°25' E 004°47'0 0.0
2015-Jan-21 22:31N 52°25' E 004°47'0 0.0
2015-Jan-21 21:31N 52°25' E 004°47'0 0.0
2015-Jan-21 20:31N 52°25' E 004°47'0 0.0
2015-Jan-21 19:31N 52°25' E 004°47'0 0.0
2015-Jan-21 18:31N 52°25' E 004°47'0 0.0
2015-Jan-21 17:31N 52°25' E 004°47'0 0.0
2015-Jan-21 16:31N 52°25' E 004°47'1 1.2
2015-Jan-21 15:34N 52°26' E 004°45'6 6.0
2015-Jan-21 14:34N 52°28' E 004°36'2 2.0
2015-Jan-21 13:33N 52°28' E 004°33'9 9.4
2015-Jan-21 12:33N 52°31' E 004°19'0 0.3
2015-Jan-21 11:31N 52°31' E 004°18'0 0.0
2015-Jan-21 10:31N 52°31' E 004°18'0 0.0
2015-Jan-21 09:31N 52°31' E 004°18'0 0.0
2015-Jan-21 08:31N 52°31' E 004°18'0 0.1
2015-Jan-21 07:31N 52°31' E 004°18'0 0.0
2015-Jan-21 06:31N 52°31' E 004°19'0 0.0
2015-Jan-21 05:31N 52°31' E 004°19'0 0.0
2015-Jan-21 04:31N 52°31' E 004°19'0 0.0
2015-Jan-21 03:31N 52°31' E 004°19'  

Dump ship's entire track history